createdAt,value
2023-03-03T00:01:09.272Z,98248.44
2023-03-03T00:03:36.692Z,98245.06
2023-03-03T00:06:09.434Z,98236.56
2023-03-03T00:08:37.183Z,98243.44
2023-03-03T00:11:06.953Z,98246.88
2023-03-03T00:13:48.113Z,98245.28
2023-03-03T00:16:28.022Z,98241.84
2023-03-03T00:18:56.346Z,98246.19
2023-03-03T00:21:29.550Z,98235.13
2023-03-03T00:24:14.668Z,98237.88
2023-03-03T00:26:50.342Z,98242.03
2023-03-03T00:29:29.615Z,98240.34
2023-03-03T00:32:31.793Z,98240.50
2023-03-03T00:35:24.451Z,98233.91
2023-03-03T00:38:00.026Z,98228.88
2023-03-03T00:40:39.850Z,98229.91
2023-03-03T00:43:34.502Z,98229.03
2023-03-03T00:46:02.118Z,98224.81
2023-03-03T00:48:38.200Z,98232.66
2023-03-03T00:51:35.801Z,98234.53
2023-03-03T00:54:03.684Z,98231.19
2023-03-03T00:56:31.186Z,98230.28
2023-03-03T00:58:58.744Z,98223.41
2023-03-03T01:01:26.149Z,98224.19
2023-03-03T01:03:53.711Z,98218.19
2023-03-03T01:06:21.227Z,98227.50
2023-03-03T01:08:48.803Z,98226.69
2023-03-03T01:11:23.235Z,98227.81
2023-03-03T01:13:53.153Z,98224.47
2023-03-03T01:16:21.138Z,98223.75
2023-03-03T01:18:48.904Z,98222.34
2023-03-03T01:21:16.214Z,98220.59
2023-03-03T01:23:43.792Z,98207.88
2023-03-03T01:26:11.139Z,98207.13
2023-03-03T01:28:38.734Z,98203.75
2023-03-03T01:31:06.773Z,98198.63
2023-03-03T01:33:36.571Z,98198.66
2023-03-03T01:36:05.045Z,98193.56
2023-03-03T01:38:35.921Z,98185.88
2023-03-03T01:41:04.172Z,98192.72
2023-03-03T01:43:33.873Z,98191.84
2023-03-03T01:46:01.163Z,98194.56
2023-03-03T01:48:44.816Z,98192.16
2023-03-03T01:51:27.365Z,98190.53
2023-03-03T01:54:00.920Z,98187.31
2023-03-03T01:56:29.773Z,98186.75
2023-03-03T01:59:07.395Z,98189.25
2023-03-03T02:01:35.872Z,98187.47
2023-03-03T02:04:04.276Z,98179.75
2023-03-03T02:06:40.403Z,98178.13
2023-03-03T02:10:05.732Z,98186.75
2023-03-03T02:12:40.959Z,98184.13
2023-03-03T02:15:32.296Z,98182.44
2023-03-03T02:18:07.414Z,98186.75
2023-03-03T02:20:41.102Z,98190.16
2023-03-03T02:23:34.560Z,98191.13
2023-03-03T02:26:15.492Z,98197.13
2023-03-03T02:28:43.867Z,98190.34
2023-03-03T02:31:17.654Z,98195.53
2023-03-03T02:33:49.128Z,98192.06
2023-03-03T02:36:34.561Z,98201.59
2023-03-03T02:39:23.944Z,98195.72
2023-03-03T02:42:12.870Z,98196.63
2023-03-03T02:44:40.279Z,98199.13
2023-03-03T02:47:08.057Z,98199.09
2023-03-03T02:49:36.801Z,98200.88
2023-03-03T02:52:09.946Z,98207.03
2023-03-03T02:54:38.006Z,98206.19
2023-03-03T02:57:06.361Z,98203.72
2023-03-03T02:59:33.637Z,98205.47
2023-03-03T03:02:01.544Z,98198.69
2023-03-03T03:04:28.902Z,98195.22
2023-03-03T03:06:57.106Z,98189.28
2023-03-03T03:09:25.950Z,98194.38
2023-03-03T03:11:53.666Z,98186.72
2023-03-03T03:14:21.021Z,98196.94
2023-03-03T03:16:48.721Z,98191.03
2023-03-03T03:19:16.241Z,98195.31
2023-03-03T03:21:43.900Z,98179.91
2023-03-03T03:24:11.290Z,98178.28
2023-03-03T03:26:38.915Z,98176.53
2023-03-03T03:29:07.738Z,98183.44
2023-03-03T03:31:35.368Z,98178.28
2023-03-03T03:34:02.715Z,98184.31
2023-03-03T03:36:30.288Z,98182.63
2023-03-03T03:38:57.567Z,98185.22
2023-03-03T03:41:25.152Z,98178.38
2023-03-03T03:43:52.445Z,98178.50
2023-03-03T03:46:20.048Z,98181.03
2023-03-03T03:48:47.394Z,98172.53
2023-03-03T03:51:15.128Z,98169.94
2023-03-03T03:53:42.397Z,98163.13
2023-03-03T03:56:09.987Z,98161.50
2023-03-03T03:58:37.287Z,98161.56
2023-03-03T04:01:08.144Z,98169.28
2023-03-03T04:03:36.145Z,98171.13
2023-03-03T04:06:03.883Z,98180.63
2023-03-03T04:08:31.156Z,98184.94
2023-03-03T04:10:58.880Z,98192.69
2023-03-03T04:13:29.017Z,98197.84
2023-03-03T04:15:56.599Z,98195.34
2023-03-03T04:18:23.929Z,98192.75
2023-03-03T04:20:52.848Z,98189.41
2023-03-03T04:23:20.631Z,98198.00
2023-03-03T04:25:49.689Z,98195.56
2023-03-03T04:28:17.778Z,98194.59
2023-03-03T04:30:45.895Z,98188.59
2023-03-03T04:33:13.534Z,98190.28
2023-03-03T04:35:41.195Z,98192.97
2023-03-03T04:38:08.612Z,98187.00
2023-03-03T04:40:36.242Z,98183.53
2023-03-03T04:43:04.370Z,98181.06
2023-03-03T04:45:32.037Z,98183.78
2023-03-03T04:47:59.475Z,98196.66
2023-03-03T04:50:27.501Z,98201.84
2023-03-03T04:52:55.275Z,98205.38
2023-03-03T04:55:22.861Z,98191.72
2023-03-03T04:57:50.119Z,98190.72
2023-03-03T05:00:18.647Z,98188.34
2023-03-03T05:02:49.078Z,98185.81
2023-03-03T05:05:16.913Z,98188.34
2023-03-03T05:07:44.163Z,98179.03
2023-03-03T05:10:12.104Z,98173.00
2023-03-03T05:12:39.663Z,98175.56
2023-03-03T05:15:08.164Z,98183.22
2023-03-03T05:17:35.671Z,98175.56
2023-03-03T05:20:05.754Z,98181.75
2023-03-03T05:22:33.028Z,98197.06
2023-03-03T05:25:00.644Z,98201.41
2023-03-03T05:27:27.841Z,98200.63
2023-03-03T05:29:55.619Z,98212.66
2023-03-03T05:32:23.104Z,98219.56
2023-03-03T05:34:52.605Z,98217.03
2023-03-03T05:37:19.929Z,98221.34
2023-03-03T05:39:47.716Z,98228.03
2023-03-03T05:42:15.188Z,98232.97
2023-03-03T05:44:43.068Z,98237.16
2023-03-03T05:47:10.936Z,98230.19
2023-03-03T05:49:38.571Z,98232.50
2023-03-03T05:52:05.961Z,98238.16
2023-03-03T05:54:33.488Z,98237.25
2023-03-03T05:57:00.852Z,98242.97
2023-03-03T05:59:28.401Z,98236.78
2023-03-03T06:01:55.752Z,98249.41
2023-03-03T06:04:23.380Z,98250.78
2023-03-03T06:06:51.555Z,98256.41
2023-03-03T06:09:19.358Z,98258.81
2023-03-03T06:11:46.633Z,98249.88
2023-03-03T06:14:14.249Z,98249.63
2023-03-03T06:16:41.645Z,98263.94
2023-03-03T06:19:09.239Z,98265.41
2023-03-03T06:21:36.459Z,98272.75
2023-03-03T06:24:04.228Z,98267.38
2023-03-03T06:26:33.049Z,98274.78
2023-03-03T06:29:01.611Z,98271.22
2023-03-03T06:31:28.965Z,98271.16
2023-03-03T06:33:56.610Z,98273.78
2023-03-03T06:36:25.506Z,98282.47
2023-03-03T06:38:53.130Z,98272.72
2023-03-03T06:41:20.530Z,98264.56
2023-03-03T06:43:48.075Z,98262.50
2023-03-03T06:46:15.467Z,98260.41
2023-03-03T06:48:43.188Z,98267.94
2023-03-03T06:51:30.891Z,98270.69
2023-03-03T06:54:06.717Z,98272.44
2023-03-03T06:56:37.620Z,98280.56
2023-03-03T06:59:18.617Z,98295.84
2023-03-03T07:01:50.657Z,98292.22
2023-03-03T07:04:33.820Z,98285.91
2023-03-03T07:07:15.254Z,98280.88
2023-03-03T07:09:50.563Z,98278.22
2023-03-03T07:12:30.656Z,98280.59
2023-03-03T07:15:20.447Z,98282.19
2023-03-03T07:17:53.179Z,98280.25
2023-03-03T07:20:35.381Z,98276.22
2023-03-03T07:23:31.578Z,98260.66
2023-03-03T07:25:59.179Z,98290.22
2023-03-03T07:28:29.536Z,98289.50
2023-03-03T07:30:58.409Z,98285.00
2023-03-03T07:33:28.821Z,98290.50
2023-03-03T07:35:59.819Z,98302.75
2023-03-03T07:38:40.384Z,98305.31
2023-03-03T07:41:21.054Z,98305.31
2023-03-03T07:43:55.839Z,98309.91
2023-03-03T07:46:43.725Z,98305.59
2023-03-03T07:49:40.137Z,98298.28
2023-03-03T07:52:33.972Z,98288.28
2023-03-03T07:55:23.649Z,98286.28
2023-03-03T07:57:54.896Z,98289.28
2023-03-03T08:00:28.627Z,98307.31
2023-03-03T08:03:04.983Z,98326.06
2023-03-03T08:05:41.899Z,98324.41
2023-03-03T08:08:36.975Z,98323.69
2023-03-03T08:11:06.182Z,98302.56
2023-03-03T08:13:38.574Z,98304.03
2023-03-03T08:16:11.447Z,98302.09
2023-03-03T08:18:50.197Z,98305.28
2023-03-03T08:21:24.318Z,98299.34
2023-03-03T08:23:53.787Z,98305.94
2023-03-03T08:26:23.701Z,98318.16
2023-03-03T08:28:52.745Z,98321.63
2023-03-03T08:31:38.155Z,98305.28
2023-03-03T08:34:08.123Z,98312.63
2023-03-03T08:36:35.434Z,98318.13
2023-03-03T08:39:05.201Z,98321.31
2023-03-03T08:41:32.627Z,98330.34
2023-03-03T08:44:00.257Z,98329.88
2023-03-03T08:46:28.742Z,98326.63
2023-03-03T08:48:56.705Z,98339.91
2023-03-03T08:51:24.917Z,98340.56
2023-03-03T08:53:52.714Z,98345.72
2023-03-03T08:56:20.046Z,98339.06
2023-03-03T08:59:01.841Z,98330.31
2023-03-03T09:01:31.704Z,98330.44
2023-03-03T09:03:59.937Z,98335.66
2023-03-03T09:06:27.374Z,98332.09
2023-03-03T09:08:55.570Z,98315.13
2023-03-03T09:11:27.751Z,98315.38
2023-03-03T09:14:21.967Z,98317.72
2023-03-03T09:16:53.497Z,98319.16
2023-03-03T09:19:30.958Z,98314.53
2023-03-03T09:22:19.069Z,98328.03
2023-03-03T09:24:49.884Z,98328.22
2023-03-03T09:27:37.258Z,98318.00
2023-03-03T09:30:40.680Z,98313.66
2023-03-03T09:33:33.467Z,98320.94
2023-03-03T09:36:29.118Z,98312.16
2023-03-03T09:39:00.726Z,98305.91
2023-03-03T09:42:18.965Z,98302.22
2023-03-03T09:45:04.744Z,98313.16
2023-03-03T09:48:17.639Z,98319.91
2023-03-03T09:51:09.132Z,98309.72
2023-03-03T09:53:49.389Z,98324.19
2023-03-03T09:56:21.395Z,98330.72
2023-03-03T09:59:25.605Z,98337.84
2023-03-03T10:02:20.560Z,98343.38
2023-03-03T10:05:28.356Z,98346.22
2023-03-03T10:08:21.763Z,98339.06
2023-03-03T10:11:02.137Z,98333.16
2023-03-03T10:13:54.659Z,98326.84
2023-03-03T10:17:24.439Z,98324.19
2023-03-03T10:20:09.956Z,98338.75
2023-03-03T10:22:43.476Z,98332.50
2023-03-03T10:25:47.140Z,98348.94
2023-03-03T10:28:54.636Z,98353.28
2023-03-03T10:31:59.620Z,98347.38
2023-03-03T10:34:50.931Z,98352.69
2023-03-03T10:37:42.768Z,98361.72
2023-03-03T10:40:33.126Z,98356.88
2023-03-03T10:43:09.284Z,98364.84
2023-03-03T10:46:35.211Z,98368.22
2023-03-03T10:49:19.793Z,98353.59
2023-03-03T10:52:28.316Z,98354.44
2023-03-03T10:55:04.762Z,98359.19
2023-03-03T10:57:56.848Z,98360.94
2023-03-03T11:00:52.611Z,98355.78
2023-03-03T11:03:35.247Z,98350.50
2023-03-03T11:06:22.374Z,98349.72
2023-03-03T11:09:04.069Z,98348.56
2023-03-03T11:11:55.812Z,98344.75
2023-03-03T11:14:52.812Z,98331.47
2023-03-03T11:17:37.720Z,98338.97
2023-03-03T11:20:20.982Z,98340.72
2023-03-03T11:23:27.618Z,98344.81
2023-03-03T11:26:27.199Z,98344.41
2023-03-03T11:29:39.267Z,98341.28
2023-03-03T11:32:53.386Z,98343.38
2023-03-03T11:35:50.290Z,98338.00
2023-03-03T11:39:02.873Z,98339.78
2023-03-03T11:41:36.465Z,98339.47
2023-03-03T11:44:44.765Z,98331.59
2023-03-03T11:47:31.772Z,98333.84
2023-03-03T11:50:33.464Z,98330.41
2023-03-03T11:53:44.750Z,98335.25
2023-03-03T11:56:29.106Z,98338.44
2023-03-03T11:59:14.354Z,98339.91
2023-03-03T12:02:00.702Z,98337.66
2023-03-03T12:04:40.798Z,98330.44
2023-03-03T12:07:49.566Z,98328.66
2023-03-03T12:10:42.493Z,98334.97
2023-03-03T12:13:49.938Z,98334.50
2023-03-03T12:16:44.612Z,98328.44
2023-03-03T12:19:42.957Z,98333.84
2023-03-03T12:22:34.150Z,98325.25
2023-03-03T12:25:49.772Z,98318.09
2023-03-03T12:28:27.618Z,98314.88
2023-03-03T12:31:13.591Z,98315.13
2023-03-03T12:33:56.944Z,98312.16
2023-03-03T12:37:06.404Z,98305.25
2023-03-03T12:39:57.972Z,98299.72
2023-03-03T12:42:51.548Z,98305.78
2023-03-03T12:46:06.824Z,98306.78
2023-03-03T12:48:47.749Z,98305.94
2023-03-03T12:51:50.620Z,98297.19
2023-03-03T12:54:58.857Z,98298.41
2023-03-03T12:57:56.087Z,98300.69
2023-03-03T13:00:56.873Z,98303.66
2023-03-03T13:03:59.427Z,98299.66
2023-03-03T13:06:45.812Z,98308.22
2023-03-03T13:09:46.721Z,98296.66
2023-03-03T13:12:38.910Z,98298.97
2023-03-03T13:15:54.856Z,98295.19
2023-03-03T13:18:56.102Z,98293.88
2023-03-03T13:21:47.447Z,98297.56
2023-03-03T13:24:35.660Z,98288.91
2023-03-03T13:27:16.944Z,98295.41
2023-03-03T13:30:08.055Z,98293.63
2023-03-03T13:32:49.325Z,98298.34
2023-03-03T13:35:44.916Z,98291.44
2023-03-03T13:38:33.405Z,98296.25
2023-03-03T13:41:38.189Z,98295.88
2023-03-03T13:44:35.795Z,98293.94
2023-03-03T13:47:31.514Z,98294.91
2023-03-03T13:50:30.845Z,98287.44
2023-03-03T13:53:27.523Z,98292.63
2023-03-03T13:56:23.621Z,98286.75
2023-03-03T13:59:01.909Z,98279.97
2023-03-03T14:01:58.269Z,98283.97
2023-03-03T14:04:48.385Z,98290.38
2023-03-03T14:07:33.812Z,98288.06
2023-03-03T14:10:18.436Z,98291.50
2023-03-03T14:13:25.336Z,98291.16
2023-03-03T14:16:52.461Z,98287.66
2023-03-03T14:19:32.896Z,98288.09
2023-03-03T14:22:24.199Z,98280.41
2023-03-03T14:25:03.976Z,98275.72
2023-03-03T14:27:40.762Z,98277.69
2023-03-03T14:30:23.919Z,98273.22
2023-03-03T14:33:09.542Z,98279.75
2023-03-03T14:36:00.953Z,98280.66
2023-03-03T14:38:34.706Z,98273.75
2023-03-03T14:41:35.145Z,98277.19
2023-03-03T14:44:27.657Z,98275.94
2023-03-03T14:47:22.809Z,98276.56
2023-03-03T14:49:51.858Z,98281.66
2023-03-03T14:52:23.960Z,98272.09
2023-03-03T14:55:00.483Z,98264.16
2023-03-03T14:57:46.376Z,98269.19
2023-03-03T15:00:15.030Z,98266.44
2023-03-03T15:03:16.504Z,98278.50
2023-03-03T15:05:58.079Z,98280.03
2023-03-03T15:08:34.983Z,98276.06
2023-03-03T15:11:17.842Z,98278.19
2023-03-03T15:13:45.812Z,98275.38
2023-03-03T15:16:23.948Z,98262.94
2023-03-03T15:19:43.663Z,98268.78
2023-03-03T15:22:35.518Z,98258.69
2023-03-03T15:25:58.809Z,98259.69
2023-03-03T15:28:59.477Z,98261.16
2023-03-03T15:31:48.503Z,98267.09
2023-03-03T15:34:39.653Z,98260.63
2023-03-03T15:37:34.047Z,98261.94
2023-03-03T15:40:30.459Z,98264.47
2023-03-03T15:43:12.157Z,98274.00
2023-03-03T15:46:06.549Z,98269.75
2023-03-03T15:48:45.490Z,98265.63
2023-03-03T15:51:31.380Z,98269.13
2023-03-03T15:54:07.651Z,98275.06
2023-03-03T15:56:58.674Z,98270.41
2023-03-03T15:59:42.383Z,98265.06
2023-03-03T16:02:38.834Z,98276.28
2023-03-03T16:06:02.601Z,98273.47
2023-03-03T16:08:56.160Z,98272.69
2023-03-03T16:12:09.290Z,98268.56
2023-03-03T16:14:52.547Z,98271.78
2023-03-03T16:17:57.141Z,98274.25
2023-03-03T16:20:43.047Z,98281.44
2023-03-03T16:23:23.327Z,98280.00
2023-03-03T16:26:17.336Z,98280.84
2023-03-03T16:29:14.201Z,98285.47
2023-03-03T16:32:32.143Z,98290.31
2023-03-03T16:35:24.814Z,98287.81
2023-03-03T16:38:10.477Z,98289.59
2023-03-03T16:40:49.725Z,98288.59
2023-03-03T16:43:17.238Z,98286.00
2023-03-03T16:45:45.976Z,98282.72
2023-03-03T16:48:25.917Z,98281.63
2023-03-03T16:51:19.822Z,98289.53
2023-03-03T16:54:11.331Z,98281.63
2023-03-03T16:56:52.016Z,98287.16
2023-03-03T16:59:43.977Z,98294.69
2023-03-03T17:02:56.034Z,98286.19
2023-03-03T17:05:52.044Z,98290.69
2023-03-03T17:08:40.704Z,98289.59
2023-03-03T17:11:43.596Z,98281.03
2023-03-03T17:14:36.234Z,98288.59
2023-03-03T17:17:25.722Z,98280.19
2023-03-03T17:20:45.028Z,98294.31
2023-03-03T17:23:27.675Z,98292.94
2023-03-03T17:26:31.705Z,98293.13
2023-03-03T17:29:33.054Z,98301.75
2023-03-03T17:32:31.646Z,98308.63
2023-03-03T17:35:23.986Z,98301.63
2023-03-03T17:38:16.728Z,98297.75
2023-03-03T17:41:04.330Z,98293.91
2023-03-03T17:44:02.595Z,98286.78
2023-03-03T17:47:01.597Z,98295.28
2023-03-03T17:49:43.901Z,98298.81
2023-03-03T17:52:34.100Z,98302.59
2023-03-03T17:55:16.513Z,98300.50
2023-03-03T17:58:17.422Z,98305.03
2023-03-03T18:00:50.605Z,98300.84
2023-03-03T18:03:59.559Z,98303.41
2023-03-03T18:06:35.796Z,98303.41
2023-03-03T18:09:52.810Z,98300.47
2023-03-03T18:12:47.649Z,98295.19
2023-03-03T18:15:27.046Z,98297.41
2023-03-03T18:18:21.497Z,98300.19
2023-03-03T18:21:05.012Z,98295.91
2023-03-03T18:23:42.107Z,98301.13
2023-03-03T18:26:34.973Z,98303.34
2023-03-03T18:29:19.651Z,98304.88
2023-03-03T18:31:57.855Z,98304.88
2023-03-03T18:34:28.283Z,98304.44
2023-03-03T18:37:10.098Z,98313.16
2023-03-03T18:40:10.089Z,98311.41
2023-03-03T18:42:43.330Z,98304.31
2023-03-03T18:45:18.087Z,98308.56
2023-03-03T18:48:11.847Z,98291.00
2023-03-03T18:50:48.008Z,98291.16
2023-03-03T18:53:23.938Z,98298.81
2023-03-03T18:55:57.906Z,98294.75
2023-03-03T18:58:43.263Z,98294.66
2023-03-03T19:01:31.471Z,98297.31
2023-03-03T19:04:22.624Z,98287.97
2023-03-03T19:06:49.992Z,98283.03
2023-03-03T19:09:52.692Z,98295.88
2023-03-03T19:12:53.595Z,98286.41
2023-03-03T19:15:30.297Z,98290.63
2023-03-03T19:18:23.967Z,98284.69
2023-03-03T19:21:05.357Z,98285.56
2023-03-03T19:23:54.465Z,98291.56
2023-03-03T19:26:40.254Z,98290.50
2023-03-03T19:29:49.273Z,98286.41
2023-03-03T19:32:47.176Z,98289.88
2023-03-03T19:36:03.337Z,98284.63
2023-03-03T19:39:02.786Z,98278.34
2023-03-03T19:42:04.919Z,98287.03
2023-03-03T19:45:39.686Z,98286.91
2023-03-03T19:48:39.433Z,98286.50
2023-03-03T19:51:45.015Z,98286.91
2023-03-03T19:54:57.700Z,98285.25
2023-03-03T19:58:28.773Z,98286.22
2023-03-03T20:01:19.964Z,98285.28
2023-03-03T20:04:41.278Z,98284.34
2023-03-03T20:07:31.446Z,98282.50
2023-03-03T20:10:23.708Z,98281.94
2023-03-03T20:13:20.898Z,98283.88
2023-03-03T20:16:00.607Z,98273.41
2023-03-03T20:19:06.564Z,98281.38
2023-03-03T20:21:35.330Z,98277.91
2023-03-03T20:24:24.913Z,98272.53
2023-03-03T20:27:09.976Z,98276.00
2023-03-03T20:29:55.296Z,98277.69
2023-03-03T20:32:49.398Z,98281.50
2023-03-03T20:35:38.041Z,98282.94
2023-03-03T20:38:57.039Z,98283.78
2023-03-03T20:42:05.936Z,98283.72
2023-03-03T20:45:21.988Z,98289.44
2023-03-03T20:48:15.503Z,98281.63
2023-03-03T20:51:00.955Z,98280.81
2023-03-03T20:53:36.507Z,98279.28
2023-03-03T20:56:36.268Z,98275.44
2023-03-03T20:59:29.802Z,98272.03
2023-03-03T21:02:09.166Z,98264.53
2023-03-03T21:04:37.131Z,98266.28
2023-03-03T21:07:05.952Z,98260.22
2023-03-03T21:09:39.277Z,98252.50
2023-03-03T21:12:27.212Z,98263.00
2023-03-03T21:15:27.684Z,98245.97
2023-03-03T21:17:57.685Z,98252.72
2023-03-03T21:20:32.590Z,98247.84
2023-03-03T21:23:02.308Z,98248.91
2023-03-03T21:25:41.872Z,98247.13
2023-03-03T21:28:21.049Z,98244.09
2023-03-03T21:31:15.935Z,98240.81
2023-03-03T21:33:52.715Z,98249.25
2023-03-03T21:36:37.122Z,98238.13
2023-03-03T21:39:26.383Z,98241.72
2023-03-03T21:41:55.505Z,98233.09
2023-03-03T21:44:41.443Z,98232.13
2023-03-03T21:47:30.921Z,98220.94
2023-03-03T21:49:58.506Z,98230.44
2023-03-03T21:52:25.822Z,98232.88
2023-03-03T21:54:53.405Z,98226.28
2023-03-03T21:57:20.747Z,98217.53
2023-03-03T21:59:48.397Z,98212.28
2023-03-03T22:02:15.838Z,98215.56
2023-03-03T22:04:43.563Z,98212.28
2023-03-03T22:07:11.612Z,98201.16
2023-03-03T22:09:39.240Z,98207.41
2023-03-03T22:12:07.855Z,98207.19
2023-03-03T22:14:35.598Z,98205.88
2023-03-03T22:17:03.476Z,98205.63
2023-03-03T22:19:31.442Z,98191.81
2023-03-03T22:21:58.706Z,98184.13
2023-03-03T22:24:26.354Z,98183.25
2023-03-03T22:26:53.650Z,98185.59
2023-03-03T22:29:23.126Z,98172.06
2023-03-03T22:31:51.341Z,98172.25
2023-03-03T22:34:19.161Z,98163.56
2023-03-03T22:36:46.435Z,98151.31
2023-03-03T22:39:14.002Z,98154.47
2023-03-03T22:41:41.301Z,98150.94
2023-03-03T22:44:08.980Z,98149.38
2023-03-03T22:46:36.409Z,98153.09
2023-03-03T22:49:04.096Z,98151.06
2023-03-03T22:51:31.467Z,98156.34
2023-03-03T22:53:59.111Z,98151.09
2023-03-03T22:56:26.368Z,98149.44
2023-03-03T22:58:54.067Z,98149.66
2023-03-03T23:01:21.452Z,98135.50
2023-03-03T23:03:50.383Z,98136.56
2023-03-03T23:06:17.770Z,98136.41
2023-03-03T23:08:47.215Z,98135.06
2023-03-03T23:11:14.518Z,98123.72
2023-03-03T23:13:42.180Z,98136.88
2023-03-03T23:16:09.486Z,98131.69
2023-03-03T23:18:37.188Z,98125.59
2023-03-03T23:21:05.258Z,98128.16
2023-03-03T23:23:33.066Z,98121.03
2023-03-03T23:26:00.909Z,98127.13
2023-03-03T23:28:28.561Z,98107.34
2023-03-03T23:30:55.866Z,98105.22
2023-03-03T23:33:23.436Z,98101.06
2023-03-03T23:35:50.757Z,98108.47
2023-03-03T23:38:18.339Z,98107.69
2023-03-03T23:40:48.724Z,98112.84
2023-03-03T23:43:16.379Z,98117.44
2023-03-03T23:45:43.839Z,98109.47
2023-03-03T23:48:11.817Z,98107.94
2023-03-03T23:50:39.366Z,98097.34
2023-03-03T23:53:07.999Z,98108.81
2023-03-03T23:55:36.368Z,98103.78
2023-03-03T23:58:04.817Z,98098.41
